sensor_id;sensor_type;location;lat;lon;timestamp;P1;durP1;ratioP1;P2;durP2;ratioP2
577;SDS011;275;48.492;9.214;2022-12-13T00:00:58;36.83;;;33.08;;
577;SDS011;275;48.492;9.214;2022-12-13T00:03:25;36.70;;;33.10;;
577;SDS011;275;48.492;9.214;2022-12-13T00:05:51;40.63;;;36.47;;
577;SDS011;275;48.492;9.214;2022-12-13T00:08:18;36.70;;;33.05;;
577;SDS011;275;48.492;9.214;2022-12-13T00:10:45;37.65;;;33.92;;
577;SDS011;275;48.492;9.214;2022-12-13T00:13:12;39.63;;;35.72;;
577;SDS011;275;48.492;9.214;2022-12-13T00:15:39;38.72;;;34.90;;
577;SDS011;275;48.492;9.214;2022-12-13T00:18:07;40.03;;;36.08;;
577;SDS011;275;48.492;9.214;2022-12-13T00:20:34;40.92;;;36.53;;
577;SDS011;275;48.492;9.214;2022-12-13T00:23:05;41.03;;;36.83;;
577;SDS011;275;48.492;9.214;2022-12-13T00:25:32;41.03;;;36.88;;
577;SDS011;275;48.492;9.214;2022-12-13T00:27:59;39.92;;;35.80;;
577;SDS011;275;48.492;9.214;2022-12-13T00:30:25;41.25;;;37.20;;
577;SDS011;275;48.492;9.214;2022-12-13T00:32:55;40.28;;;36.25;;
577;SDS011;275;48.492;9.214;2022-12-13T00:35:23;40.17;;;36.13;;
577;SDS011;275;48.492;9.214;2022-12-13T00:37:50;38.78;;;35.05;;
577;SDS011;275;48.492;9.214;2022-12-13T00:40:17;42.65;;;38.35;;
577;SDS011;275;48.492;9.214;2022-12-13T00:42:45;42.50;;;38.22;;
577;SDS011;275;48.492;9.214;2022-12-13T00:45:12;40.00;;;36.03;;
577;SDS011;275;48.492;9.214;2022-12-13T00:47:38;41.00;;;37.10;;
577;SDS011;275;48.492;9.214;2022-12-13T00:50:05;40.92;;;36.92;;
577;SDS011;275;48.492;9.214;2022-12-13T00:52:34;38.00;;;34.40;;
577;SDS011;275;48.492;9.214;2022-12-13T00:55:01;39.75;;;35.88;;
577;SDS011;275;48.492;9.214;2022-12-13T00:57:27;39.42;;;35.53;;
577;SDS011;275;48.492;9.214;2022-12-13T00:59:54;40.83;;;36.55;;
577;SDS011;275;48.492;9.214;2022-12-13T01:02:21;37.85;;;34.30;;
577;SDS011;275;48.492;9.214;2022-12-13T01:04:48;38.13;;;34.55;;
577;SDS011;275;48.492;9.214;2022-12-13T01:07:15;38.03;;;34.53;;
577;SDS011;275;48.492;9.214;2022-12-13T01:09:43;38.80;;;34.70;;
577;SDS011;275;48.492;9.214;2022-12-13T01:12:10;38.88;;;35.15;;
577;SDS011;275;48.492;9.214;2022-12-13T01:14:37;37.25;;;33.45;;
577;SDS011;275;48.492;9.214;2022-12-13T01:17:05;43.22;;;38.70;;
577;SDS011;275;48.492;9.214;2022-12-13T01:19:32;39.50;;;35.58;;
577;SDS011;275;48.492;9.214;2022-12-13T01:22:00;38.35;;;34.67;;
577;SDS011;275;48.492;9.214;2022-12-13T01:24:28;39.53;;;35.55;;
577;SDS011;275;48.492;9.214;2022-12-13T01:26:57;38.38;;;34.72;;
577;SDS011;275;48.492;9.214;2022-12-13T01:29:25;40.15;;;36.15;;
577;SDS011;275;48.492;9.214;2022-12-13T01:31:52;40.65;;;36.70;;
577;SDS011;275;48.492;9.214;2022-12-13T01:34:20;41.08;;;36.95;;
577;SDS011;275;48.492;9.214;2022-12-13T01:36:48;37.95;;;34.45;;
577;SDS011;275;48.492;9.214;2022-12-13T01:39:15;38.83;;;34.20;;
577;SDS011;275;48.492;9.214;2022-12-13T01:41:46;39.20;;;35.58;;
577;SDS011;275;48.492;9.214;2022-12-13T01:47:21;39.72;;;35.83;;
577;SDS011;275;48.492;9.214;2022-12-13T01:49:51;37.90;;;34.10;;
577;SDS011;275;48.492;9.214;2022-12-13T01:52:21;38.80;;;35.20;;
577;SDS011;275;48.492;9.214;2022-12-13T01:54:49;38.75;;;35.03;;
577;SDS011;275;48.492;9.214;2022-12-13T01:57:17;40.42;;;36.25;;
577;SDS011;275;48.492;9.214;2022-12-13T01:59:46;39.30;;;35.65;;
577;SDS011;275;48.492;9.214;2022-12-13T02:02:15;39.25;;;35.20;;
577;SDS011;275;48.492;9.214;2022-12-13T02:04:47;37.60;;;33.95;;
577;SDS011;275;48.492;9.214;2022-12-13T02:07:18;38.05;;;34.28;;
577;SDS011;275;48.492;9.214;2022-12-13T02:09:49;37.88;;;34.10;;
577;SDS011;275;48.492;9.214;2022-12-13T02:12:16;39.28;;;35.50;;
577;SDS011;275;48.492;9.214;2022-12-13T02:14:43;38.45;;;34.95;;
577;SDS011;275;48.492;9.214;2022-12-13T02:17:11;37.78;;;34.08;;
577;SDS011;275;48.492;9.214;2022-12-13T02:19:56;37.03;;;33.33;;
577;SDS011;275;48.492;9.214;2022-12-13T02:22:42;38.33;;;34.47;;
577;SDS011;275;48.492;9.214;2022-12-13T02:25:24;38.53;;;34.88;;
577;SDS011;275;48.492;9.214;2022-12-13T02:28:19;37.35;;;33.38;;
577;SDS011;275;48.492;9.214;2022-12-13T02:31:03;35.53;;;32.03;;
577;SDS011;275;48.492;9.214;2022-12-13T02:33:36;35.17;;;31.58;;
577;SDS011;275;48.492;9.214;2022-12-13T02:36:15;36.78;;;33.38;;
577;SDS011;275;48.492;9.214;2022-12-13T02:38:48;37.05;;;33.42;;
577;SDS011;275;48.492;9.214;2022-12-13T02:41:22;38.53;;;34.72;;
577;SDS011;275;48.492;9.214;2022-12-13T02:43:54;37.88;;;34.13;;
577;SDS011;275;48.492;9.214;2022-12-13T02:46:25;37.60;;;34.10;;
577;SDS011;275;48.492;9.214;2022-12-13T02:48:55;42.30;;;38.05;;
577;SDS011;275;48.492;9.214;2022-12-13T02:51:23;39.55;;;35.85;;
577;SDS011;275;48.492;9.214;2022-12-13T02:53:51;38.00;;;34.15;;
577;SDS011;275;48.492;9.214;2022-12-13T02:56:18;38.70;;;34.92;;
577;SDS011;275;48.492;9.214;2022-12-13T02:58:46;37.63;;;33.85;;
577;SDS011;275;48.492;9.214;2022-12-13T03:01:19;36.47;;;32.60;;
577;SDS011;275;48.492;9.214;2022-12-13T03:04:03;34.83;;;31.58;;
577;SDS011;275;48.492;9.214;2022-12-13T03:06:38;35.33;;;31.73;;
577;SDS011;275;48.492;9.214;2022-12-13T03:09:17;35.17;;;31.60;;
577;SDS011;275;48.492;9.214;2022-12-13T03:11:55;32.42;;;29.33;;
577;SDS011;275;48.492;9.214;2022-12-13T03:14:52;32.90;;;29.52;;
577;SDS011;275;48.492;9.214;2022-12-13T03:17:25;34.63;;;31.25;;
577;SDS011;275;48.492;9.214;2022-12-13T03:19:56;32.00;;;28.60;;
577;SDS011;275;48.492;9.214;2022-12-13T03:22:23;33.42;;;30.08;;
577;SDS011;275;48.492;9.214;2022-12-13T03:24:50;31.38;;;28.33;;
577;SDS011;275;48.492;9.214;2022-12-13T03:27:17;31.58;;;28.45;;
577;SDS011;275;48.492;9.214;2022-12-13T03:29:44;32.75;;;29.75;;
577;SDS011;275;48.492;9.214;2022-12-13T03:32:11;32.90;;;29.77;;
577;SDS011;275;48.492;9.214;2022-12-13T03:34:39;33.58;;;30.30;;
577;SDS011;275;48.492;9.214;2022-12-13T03:37:06;32.45;;;29.15;;
577;SDS011;275;48.492;9.214;2022-12-13T03:39:32;32.22;;;29.05;;
577;SDS011;275;48.492;9.214;2022-12-13T03:41:59;30.52;;;27.60;;
577;SDS011;275;48.492;9.214;2022-12-13T03:44:26;32.05;;;28.75;;
577;SDS011;275;48.492;9.214;2022-12-13T03:46:53;32.17;;;29.23;;
577;SDS011;275;48.492;9.214;2022-12-13T03:49:20;33.88;;;30.50;;
577;SDS011;275;48.492;9.214;2022-12-13T03:51:48;30.52;;;27.42;;
577;SDS011;275;48.492;9.214;2022-12-13T03:54:15;33.03;;;29.77;;
577;SDS011;275;48.492;9.214;2022-12-13T03:56:41;34.22;;;30.55;;
577;SDS011;275;48.492;9.214;2022-12-13T03:59:08;34.88;;;31.48;;
577;SDS011;275;48.492;9.214;2022-12-13T04:01:35;32.95;;;29.80;;
577;SDS011;275;48.492;9.214;2022-12-13T04:04:02;35.85;;;32.35;;
577;SDS011;275;48.492;9.214;2022-12-13T04:06:29;35.60;;;32.20;;
577;SDS011;275;48.492;9.214;2022-12-13T04:08:57;36.53;;;33.03;;
577;SDS011;275;48.492;9.214;2022-12-13T04:11:24;36.47;;;33.00;;
577;SDS011;275;48.492;9.214;2022-12-13T04:14:08;35.63;;;32.13;;
577;SDS011;275;48.492;9.214;2022-12-13T04:16:35;33.85;;;30.75;;
577;SDS011;275;48.492;9.214;2022-12-13T04:19:02;36.47;;;32.88;;
577;SDS011;275;48.492;9.214;2022-12-13T04:21:28;33.97;;;30.65;;
577;SDS011;275;48.492;9.214;2022-12-13T04:23:57;33.13;;;30.02;;
577;SDS011;275;48.492;9.214;2022-12-13T04:26:23;35.00;;;31.52;;
577;SDS011;275;48.492;9.214;2022-12-13T04:28:50;34.20;;;30.88;;
577;SDS011;275;48.492;9.214;2022-12-13T04:31:17;35.00;;;31.10;;
577;SDS011;275;48.492;9.214;2022-12-13T04:33:44;33.53;;;30.52;;
577;SDS011;275;48.492;9.214;2022-12-13T04:36:11;33.33;;;30.10;;
577;SDS011;275;48.492;9.214;2022-12-13T04:38:43;34.67;;;31.30;;
577;SDS011;275;48.492;9.214;2022-12-13T04:41:13;33.72;;;30.70;;
577;SDS011;275;48.492;9.214;2022-12-13T04:43:41;34.60;;;31.05;;
577;SDS011;275;48.492;9.214;2022-12-13T04:46:08;32.30;;;29.10;;
577;SDS011;275;48.492;9.214;2022-12-13T04:48:35;34.45;;;31.35;;
577;SDS011;275;48.492;9.214;2022-12-13T04:51:02;37.03;;;33.20;;
577;SDS011;275;48.492;9.214;2022-12-13T04:53:29;33.65;;;30.33;;
577;SDS011;275;48.492;9.214;2022-12-13T04:55:56;34.58;;;31.13;;
577;SDS011;275;48.492;9.214;2022-12-13T04:58:24;33.53;;;30.13;;
577;SDS011;275;48.492;9.214;2022-12-13T05:00:52;33.30;;;29.92;;
577;SDS011;275;48.492;9.214;2022-12-13T05:03:18;34.13;;;30.48;;
577;SDS011;275;48.492;9.214;2022-12-13T05:05:45;33.05;;;29.85;;
577;SDS011;275;48.492;9.214;2022-12-13T05:08:12;34.20;;;30.92;;
577;SDS011;275;48.492;9.214;2022-12-13T05:10:39;35.53;;;32.10;;
577;SDS011;275;48.492;9.214;2022-12-13T05:13:06;34.05;;;30.77;;
577;SDS011;275;48.492;9.214;2022-12-13T05:15:35;37.22;;;33.25;;
577;SDS011;275;48.492;9.214;2022-12-13T05:18:02;37.50;;;33.65;;
577;SDS011;275;48.492;9.214;2022-12-13T05:20:31;36.55;;;32.85;;
577;SDS011;275;48.492;9.214;2022-12-13T05:23:00;36.10;;;32.40;;
577;SDS011;275;48.492;9.214;2022-12-13T05:25:27;36.47;;;32.97;;
577;SDS011;275;48.492;9.214;2022-12-13T05:27:54;35.83;;;32.28;;
577;SDS011;275;48.492;9.214;2022-12-13T05:30:22;37.20;;;33.60;;
577;SDS011;275;48.492;9.214;2022-12-13T05:32:50;37.17;;;33.47;;
577;SDS011;275;48.492;9.214;2022-12-13T05:35:17;40.22;;;35.97;;
577;SDS011;275;48.492;9.214;2022-12-13T05:37:44;35.55;;;32.03;;
577;SDS011;275;48.492;9.214;2022-12-13T05:40:11;37.58;;;34.17;;
577;SDS011;275;48.492;9.214;2022-12-13T05:42:38;37.10;;;33.30;;
577;SDS011;275;48.492;9.214;2022-12-13T05:45:05;36.20;;;32.72;;
577;SDS011;275;48.492;9.214;2022-12-13T05:47:32;37.70;;;33.90;;
577;SDS011;275;48.492;9.214;2022-12-13T05:50:01;37.08;;;33.50;;
577;SDS011;275;48.492;9.214;2022-12-13T05:52:27;37.90;;;34.20;;
577;SDS011;275;48.492;9.214;2022-12-13T05:54:54;36.47;;;32.92;;
577;SDS011;275;48.492;9.214;2022-12-13T05:57:21;37.03;;;33.22;;
577;SDS011;275;48.492;9.214;2022-12-13T05:59:48;37.88;;;34.08;;
577;SDS011;275;48.492;9.214;2022-12-13T06:02:15;36.30;;;32.85;;
577;SDS011;275;48.492;9.214;2022-12-13T06:04:42;37.22;;;33.40;;
577;SDS011;275;48.492;9.214;2022-12-13T06:07:11;36.40;;;32.60;;
577;SDS011;275;48.492;9.214;2022-12-13T06:09:38;36.22;;;32.83;;
577;SDS011;275;48.492;9.214;2022-12-13T06:12:05;37.95;;;34.15;;
577;SDS011;275;48.492;9.214;2022-12-13T06:14:33;37.15;;;33.30;;
577;SDS011;275;48.492;9.214;2022-12-13T06:17:00;36.85;;;33.17;;
577;SDS011;275;48.492;9.214;2022-12-13T06:19:27;36.63;;;33.03;;
577;SDS011;275;48.492;9.214;2022-12-13T06:21:54;40.30;;;36.20;;
577;SDS011;275;48.492;9.214;2022-12-13T06:24:22;37.10;;;33.42;;
577;SDS011;275;48.492;9.214;2022-12-13T06:26:51;37.72;;;33.88;;
577;SDS011;275;48.492;9.214;2022-12-13T06:29:19;36.28;;;32.45;;
577;SDS011;275;48.492;9.214;2022-12-13T06:31:47;36.97;;;33.28;;
577;SDS011;275;48.492;9.214;2022-12-13T06:34:20;36.05;;;32.45;;
577;SDS011;275;48.492;9.214;2022-12-13T06:36:47;36.20;;;32.85;;
577;SDS011;275;48.492;9.214;2022-12-13T06:39:14;38.17;;;34.17;;
577;SDS011;275;48.492;9.214;2022-12-13T06:41:42;39.55;;;35.33;;
577;SDS011;275;48.492;9.214;2022-12-13T06:44:09;36.92;;;33.10;;
577;SDS011;275;48.492;9.214;2022-12-13T06:46:36;40.78;;;36.67;;
577;SDS011;275;48.492;9.214;2022-12-13T06:49:03;38.70;;;34.95;;
577;SDS011;275;48.492;9.214;2022-12-13T06:51:31;39.97;;;35.67;;
577;SDS011;275;48.492;9.214;2022-12-13T06:53:59;43.45;;;38.90;;
577;SDS011;275;48.492;9.214;2022-12-13T06:56:26;42.28;;;38.00;;
577;SDS011;275;48.492;9.214;2022-12-13T06:58:55;41.72;;;37.47;;
577;SDS011;275;48.492;9.214;2022-12-13T07:01:23;42.20;;;37.97;;
577;SDS011;275;48.492;9.214;2022-12-13T07:03:49;40.80;;;36.42;;
577;SDS011;275;48.492;9.214;2022-12-13T07:06:17;42.08;;;37.63;;
577;SDS011;275;48.492;9.214;2022-12-13T07:08:47;42.55;;;38.15;;
577;SDS011;275;48.492;9.214;2022-12-13T07:11:15;39.95;;;35.67;;
577;SDS011;275;48.492;9.214;2022-12-13T07:13:44;41.95;;;37.75;;
577;SDS011;275;48.492;9.214;2022-12-13T07:16:12;43.70;;;39.10;;
577;SDS011;275;48.492;9.214;2022-12-13T07:18:39;39.63;;;35.45;;
577;SDS011;275;48.492;9.214;2022-12-13T07:21:06;41.03;;;36.80;;
577;SDS011;275;48.492;9.214;2022-12-13T07:23:35;38.50;;;34.58;;
577;SDS011;275;48.492;9.214;2022-12-13T07:26:03;41.30;;;36.92;;
577;SDS011;275;48.492;9.214;2022-12-13T07:28:30;40.70;;;36.53;;
577;SDS011;275;48.492;9.214;2022-12-13T07:30:59;38.72;;;34.72;;
577;SDS011;275;48.492;9.214;2022-12-13T07:33:27;41.65;;;37.53;;
577;SDS011;275;48.492;9.214;2022-12-13T07:35:58;46.72;;;37.55;;
577;SDS011;275;48.492;9.214;2022-12-13T07:38:25;42.63;;;38.33;;
577;SDS011;275;48.492;9.214;2022-12-13T07:40:54;39.88;;;35.97;;
577;SDS011;275;48.492;9.214;2022-12-13T07:43:22;44.65;;;40.15;;
577;SDS011;275;48.492;9.214;2022-12-13T07:45:49;44.72;;;38.20;;
577;SDS011;275;48.492;9.214;2022-12-13T07:48:16;40.83;;;36.80;;
577;SDS011;275;48.492;9.214;2022-12-13T07:50:44;46.03;;;41.25;;
577;SDS011;275;48.492;9.214;2022-12-13T07:53:11;42.42;;;37.83;;
577;SDS011;275;48.492;9.214;2022-12-13T07:55:38;38.50;;;34.70;;
577;SDS011;275;48.492;9.214;2022-12-13T07:58:05;39.80;;;35.63;;
577;SDS011;275;48.492;9.214;2022-12-13T08:00:33;40.80;;;36.40;;
577;SDS011;275;48.492;9.214;2022-12-13T08:03:00;41.80;;;37.72;;
577;SDS011;275;48.492;9.214;2022-12-13T08:05:27;41.38;;;36.60;;
577;SDS011;275;48.492;9.214;2022-12-13T08:07:55;38.75;;;34.58;;
577;SDS011;275;48.492;9.214;2022-12-13T08:10:22;40.65;;;36.65;;
577;SDS011;275;48.492;9.214;2022-12-13T08:12:49;40.92;;;36.30;;
577;SDS011;275;48.492;9.214;2022-12-13T08:15:16;39.72;;;35.83;;
577;SDS011;275;48.492;9.214;2022-12-13T08:17:43;40.20;;;36.13;;
577;SDS011;275;48.492;9.214;2022-12-13T08:20:10;41.60;;;37.40;;
577;SDS011;275;48.492;9.214;2022-12-13T08:22:37;39.90;;;36.00;;
577;SDS011;275;48.492;9.214;2022-12-13T08:25:06;37.85;;;34.00;;
577;SDS011;275;48.492;9.214;2022-12-13T08:27:33;39.03;;;34.75;;
577;SDS011;275;48.492;9.214;2022-12-13T08:30:00;36.63;;;32.90;;
577;SDS011;275;48.492;9.214;2022-12-13T08:32:26;40.80;;;35.80;;
577;SDS011;275;48.492;9.214;2022-12-13T08:34:53;37.58;;;33.60;;
577;SDS011;275;48.492;9.214;2022-12-13T08:37:20;37.28;;;33.25;;
577;SDS011;275;48.492;9.214;2022-12-13T08:39:47;43.83;;;36.85;;
577;SDS011;275;48.492;9.214;2022-12-13T08:42:16;40.28;;;35.88;;
577;SDS011;275;48.492;9.214;2022-12-13T08:44:44;36.03;;;32.42;;
577;SDS011;275;48.492;9.214;2022-12-13T08:47:11;38.70;;;34.85;;
577;SDS011;275;48.492;9.214;2022-12-13T08:49:38;37.60;;;33.70;;
577;SDS011;275;48.492;9.214;2022-12-13T08:52:05;38.97;;;34.85;;
577;SDS011;275;48.492;9.214;2022-12-13T08:54:33;38.33;;;34.40;;
577;SDS011;275;48.492;9.214;2022-12-13T08:56:59;40.50;;;36.22;;
577;SDS011;275;48.492;9.214;2022-12-13T08:59:28;38.88;;;34.83;;
577;SDS011;275;48.492;9.214;2022-12-13T09:01:55;44.28;;;38.70;;
577;SDS011;275;48.492;9.214;2022-12-13T09:04:22;38.72;;;34.83;;
577;SDS011;275;48.492;9.214;2022-12-13T09:06:49;39.67;;;35.58;;
577;SDS011;275;48.492;9.214;2022-12-13T09:09:15;42.10;;;37.75;;
577;SDS011;275;48.492;9.214;2022-12-13T09:11:42;42.00;;;37.67;;
577;SDS011;275;48.492;9.214;2022-12-13T09:14:09;42.78;;;38.42;;
577;SDS011;275;48.492;9.214;2022-12-13T09:16:38;41.35;;;37.05;;
577;SDS011;275;48.492;9.214;2022-12-13T09:19:05;37.67;;;33.83;;
577;SDS011;275;48.492;9.214;2022-12-13T09:21:32;36.67;;;32.80;;
577;SDS011;275;48.492;9.214;2022-12-13T09:23:59;38.00;;;34.20;;
577;SDS011;275;48.492;9.214;2022-12-13T09:26:26;39.80;;;34.20;;
577;SDS011;275;48.492;9.214;2022-12-13T09:28:53;39.17;;;35.15;;
577;SDS011;275;48.492;9.214;2022-12-13T09:31:19;42.60;;;36.20;;
577;SDS011;275;48.492;9.214;2022-12-13T09:33:48;34.38;;;30.77;;
577;SDS011;275;48.492;9.214;2022-12-13T09:36:15;35.42;;;31.30;;
577;SDS011;275;48.492;9.214;2022-12-13T09:38:44;35.00;;;31.40;;
577;SDS011;275;48.492;9.214;2022-12-13T09:41:14;33.03;;;29.63;;
577;SDS011;275;48.492;9.214;2022-12-13T09:43:46;34.20;;;29.30;;
577;SDS011;275;48.492;9.214;2022-12-13T09:46:20;31.92;;;28.52;;
577;SDS011;275;48.492;9.214;2022-12-13T09:48:53;32.38;;;28.70;;
577;SDS011;275;48.492;9.214;2022-12-13T09:51:21;31.77;;;28.45;;
577;SDS011;275;48.492;9.214;2022-12-13T09:53:50;32.70;;;28.75;;
577;SDS011;275;48.492;9.214;2022-12-13T09:56:19;31.10;;;27.85;;
577;SDS011;275;48.492;9.214;2022-12-13T09:58:48;32.60;;;29.35;;
577;SDS011;275;48.492;9.214;2022-12-13T10:01:16;32.67;;;29.50;;
577;SDS011;275;48.492;9.214;2022-12-13T10:03:45;31.67;;;28.52;;
577;SDS011;275;48.492;9.214;2022-12-13T10:06:17;31.85;;;28.55;;
577;SDS011;275;48.492;9.214;2022-12-13T10:08:45;31.98;;;28.73;;
577;SDS011;275;48.492;9.214;2022-12-13T10:11:14;29.88;;;26.20;;
577;SDS011;275;48.492;9.214;2022-12-13T10:13:43;29.95;;;26.90;;
577;SDS011;275;48.492;9.214;2022-12-13T10:16:15;30.08;;;26.83;;
577;SDS011;275;48.492;9.214;2022-12-13T10:18:45;29.23;;;26.42;;
577;SDS011;275;48.492;9.214;2022-12-13T10:21:13;31.38;;;26.95;;
577;SDS011;275;48.492;9.214;2022-12-13T10:23:44;30.20;;;27.20;;
577;SDS011;275;48.492;9.214;2022-12-13T10:26:11;29.73;;;26.23;;
577;SDS011;275;48.492;9.214;2022-12-13T10:28:39;30.75;;;27.48;;
577;SDS011;275;48.492;9.214;2022-12-13T10:31:07;30.55;;;27.42;;
577;SDS011;275;48.492;9.214;2022-12-13T10:33:35;30.33;;;27.00;;
577;SDS011;275;48.492;9.214;2022-12-13T10:36:04;29.27;;;26.27;;
577;SDS011;275;48.492;9.214;2022-12-13T10:38:35;28.38;;;25.70;;
577;SDS011;275;48.492;9.214;2022-12-13T10:41:23;30.92;;;27.00;;
577;SDS011;275;48.492;9.214;2022-12-13T10:44:08;29.80;;;26.70;;
577;SDS011;275;48.492;9.214;2022-12-13T10:46:49;30.30;;;27.20;;
577;SDS011;275;48.492;9.214;2022-12-13T10:49:19;29.10;;;26.08;;
577;SDS011;275;48.492;9.214;2022-12-13T10:51:48;28.00;;;24.67;;
577;SDS011;275;48.492;9.214;2022-12-13T10:54:22;29.02;;;26.17;;
577;SDS011;275;48.492;9.214;2022-12-13T10:56:52;29.55;;;26.45;;
577;SDS011;275;48.492;9.214;2022-12-13T10:59:25;30.95;;;27.73;;
577;SDS011;275;48.492;9.214;2022-12-13T11:01:58;29.27;;;26.25;;
577;SDS011;275;48.492;9.214;2022-12-13T11:04:26;27.92;;;25.13;;
577;SDS011;275;48.492;9.214;2022-12-13T11:06:55;28.98;;;26.02;;
577;SDS011;275;48.492;9.214;2022-12-13T11:09:25;28.05;;;25.13;;
577;SDS011;275;48.492;9.214;2022-12-13T11:11:54;28.48;;;25.35;;
577;SDS011;275;48.492;9.214;2022-12-13T11:14:23;29.58;;;26.52;;
577;SDS011;275;48.492;9.214;2022-12-13T11:16:53;28.40;;;25.50;;
577;SDS011;275;48.492;9.214;2022-12-13T11:19:24;33.25;;;26.20;;
577;SDS011;275;48.492;9.214;2022-12-13T11:21:52;26.90;;;24.20;;
577;SDS011;275;48.492;9.214;2022-12-13T11:24:20;27.98;;;25.08;;
577;SDS011;275;48.492;9.214;2022-12-13T11:26:52;30.13;;;26.98;;
577;SDS011;275;48.492;9.214;2022-12-13T11:29:30;27.60;;;24.70;;
577;SDS011;275;48.492;9.214;2022-12-13T11:32:11;30.25;;;27.27;;
577;SDS011;275;48.492;9.214;2022-12-13T11:34:45;30.50;;;27.48;;
577;SDS011;275;48.492;9.214;2022-12-13T11:37:21;30.30;;;26.58;;
577;SDS011;275;48.492;9.214;2022-12-13T11:39:54;28.95;;;26.13;;
577;SDS011;275;48.492;9.214;2022-12-13T11:42:27;29.88;;;27.02;;
577;SDS011;275;48.492;9.214;2022-12-13T11:45:00;29.65;;;26.27;;
577;SDS011;275;48.492;9.214;2022-12-13T11:47:33;28.50;;;25.42;;
577;SDS011;275;48.492;9.214;2022-12-13T11:50:10;27.30;;;24.40;;
577;SDS011;275;48.492;9.214;2022-12-13T11:52:41;26.15;;;23.48;;
577;SDS011;275;48.492;9.214;2022-12-13T11:55:14;27.67;;;24.90;;
577;SDS011;275;48.492;9.214;2022-12-13T11:57:47;24.88;;;21.80;;
577;SDS011;275;48.492;9.214;2022-12-13T12:00:26;28.92;;;25.85;;
577;SDS011;275;48.492;9.214;2022-12-13T12:02:58;29.13;;;26.02;;
577;SDS011;275;48.492;9.214;2022-12-13T12:05:32;28.48;;;24.58;;
577;SDS011;275;48.492;9.214;2022-12-13T12:08:03;30.58;;;27.58;;
577;SDS011;275;48.492;9.214;2022-12-13T12:10:35;25.23;;;22.52;;
577;SDS011;275;48.492;9.214;2022-12-13T12:13:06;24.83;;;21.58;;
577;SDS011;275;48.492;9.214;2022-12-13T12:15:42;27.20;;;24.25;;
577;SDS011;275;48.492;9.214;2022-12-13T12:18:14;24.83;;;22.23;;
577;SDS011;275;48.492;9.214;2022-12-13T12:20:43;23.77;;;21.35;;
577;SDS011;275;48.492;9.214;2022-12-13T12:23:24;26.33;;;23.63;;
577;SDS011;275;48.492;9.214;2022-12-13T12:26:00;25.02;;;22.45;;
577;SDS011;275;48.492;9.214;2022-12-13T12:28:37;26.63;;;23.85;;
577;SDS011;275;48.492;9.214;2022-12-13T12:31:17;29.73;;;23.77;;
577;SDS011;275;48.492;9.214;2022-12-13T12:33:51;23.13;;;20.73;;
577;SDS011;275;48.492;9.214;2022-12-13T12:36:31;22.15;;;19.92;;
577;SDS011;275;48.492;9.214;2022-12-13T12:39:16;26.67;;;21.40;;
577;SDS011;275;48.492;9.214;2022-12-13T12:42:13;23.08;;;20.67;;
577;SDS011;275;48.492;9.214;2022-12-13T12:45:09;29.45;;;26.52;;
577;SDS011;275;48.492;9.214;2022-12-13T12:47:48;23.08;;;20.65;;
577;SDS011;275;48.492;9.214;2022-12-13T12:50:25;30.98;;;27.98;;
577;SDS011;275;48.492;9.214;2022-12-13T12:53:10;26.00;;;22.23;;
577;SDS011;275;48.492;9.214;2022-12-13T12:55:55;21.83;;;19.30;;
577;SDS011;275;48.492;9.214;2022-12-13T12:58:32;21.38;;;19.17;;
577;SDS011;275;48.492;9.214;2022-12-13T13:01:12;22.42;;;18.60;;
577;SDS011;275;48.492;9.214;2022-12-13T13:03:48;24.00;;;21.25;;
577;SDS011;275;48.492;9.214;2022-12-13T13:06:19;28.10;;;25.20;;
577;SDS011;275;48.492;9.214;2022-12-13T13:08:49;29.08;;;26.27;;
577;SDS011;275;48.492;9.214;2022-12-13T13:11:23;23.17;;;20.67;;
577;SDS011;275;48.492;9.214;2022-12-13T13:14:02;23.42;;;20.92;;
577;SDS011;275;48.492;9.214;2022-12-13T13:16:34;23.77;;;20.85;;
577;SDS011;275;48.492;9.214;2022-12-13T13:19:03;26.40;;;23.70;;
577;SDS011;275;48.492;9.214;2022-12-13T13:21:37;26.85;;;24.10;;
577;SDS011;275;48.492;9.214;2022-12-13T13:24:18;25.95;;;22.83;;
577;SDS011;275;48.492;9.214;2022-12-13T13:26:47;24.05;;;21.45;;
577;SDS011;275;48.492;9.214;2022-12-13T13:29:29;25.15;;;22.48;;
577;SDS011;275;48.492;9.214;2022-12-13T13:32:01;26.02;;;21.10;;
577;SDS011;275;48.492;9.214;2022-12-13T13:34:31;19.25;;;17.25;;
577;SDS011;275;48.492;9.214;2022-12-13T13:36:59;20.88;;;16.77;;
577;SDS011;275;48.492;9.214;2022-12-13T13:42:20;21.75;;;17.98;;
577;SDS011;275;48.492;9.214;2022-12-13T13:47:55;24.48;;;21.73;;
577;SDS011;275;48.492;9.214;2022-12-13T13:56:51;16.40;;;14.60;;
577;SDS011;275;48.492;9.214;2022-12-13T14:02:48;21.27;;;19.17;;
577;SDS011;275;48.492;9.214;2022-12-13T14:08:49;18.98;;;16.67;;
577;SDS011;275;48.492;9.214;2022-12-13T14:14:41;18.77;;;14.20;;
577;SDS011;275;48.492;9.214;2022-12-13T14:17:47;16.83;;;15.20;;
577;SDS011;275;48.492;9.214;2022-12-13T14:20:44;15.73;;;13.75;;
577;SDS011;275;48.492;9.214;2022-12-13T14:23:23;15.50;;;13.90;;
577;SDS011;275;48.492;9.214;2022-12-13T14:26:08;16.70;;;13.27;;
577;SDS011;275;48.492;9.214;2022-12-13T14:28:45;16.75;;;15.07;;
577;SDS011;275;48.492;9.214;2022-12-13T14:31:15;18.60;;;15.38;;
577;SDS011;275;48.492;9.214;2022-12-13T14:33:46;13.02;;;11.63;;
577;SDS011;275;48.492;9.214;2022-12-13T14:36:14;13.80;;;12.40;;
577;SDS011;275;48.492;9.214;2022-12-13T14:38:42;16.92;;;12.40;;
577;SDS011;275;48.492;9.214;2022-12-13T14:41:15;21.35;;;16.00;;
577;SDS011;275;48.492;9.214;2022-12-13T14:43:44;15.68;;;11.43;;
577;SDS011;275;48.492;9.214;2022-12-13T14:46:12;11.68;;;10.40;;
577;SDS011;275;48.492;9.214;2022-12-13T14:48:43;11.73;;;10.13;;
577;SDS011;275;48.492;9.214;2022-12-13T14:51:18;12.00;;;10.65;;
577;SDS011;275;48.492;9.214;2022-12-13T14:53:56;15.38;;;13.90;;
577;SDS011;275;48.492;9.214;2022-12-13T14:56:25;16.20;;;14.52;;
577;SDS011;275;48.492;9.214;2022-12-13T14:58:52;15.85;;;13.32;;
577;SDS011;275;48.492;9.214;2022-12-13T15:01:24;14.50;;;12.52;;
577;SDS011;275;48.492;9.214;2022-12-13T15:03:53;12.57;;;11.32;;
577;SDS011;275;48.492;9.214;2022-12-13T15:06:20;16.30;;;14.20;;
577;SDS011;275;48.492;9.214;2022-12-13T15:08:47;19.70;;;17.60;;
577;SDS011;275;48.492;9.214;2022-12-13T15:11:14;20.52;;;15.75;;
577;SDS011;275;48.492;9.214;2022-12-13T15:13:43;15.93;;;14.13;;
577;SDS011;275;48.492;9.214;2022-12-13T15:16:16;15.60;;;13.35;;
577;SDS011;275;48.492;9.214;2022-12-13T15:18:47;15.05;;;13.55;;
577;SDS011;275;48.492;9.214;2022-12-13T15:21:17;15.20;;;11.90;;
577;SDS011;275;48.492;9.214;2022-12-13T15:23:47;20.10;;;15.63;;
577;SDS011;275;48.492;9.214;2022-12-13T15:26:16;15.20;;;13.70;;
577;SDS011;275;48.492;9.214;2022-12-13T15:28:46;17.50;;;15.80;;
577;SDS011;275;48.492;9.214;2022-12-13T15:31:19;20.30;;;18.40;;
577;SDS011;275;48.492;9.214;2022-12-13T15:33:46;20.65;;;18.60;;
577;SDS011;275;48.492;9.214;2022-12-13T15:36:14;18.98;;;17.02;;
577;SDS011;275;48.492;9.214;2022-12-13T15:38:46;17.38;;;15.63;;
577;SDS011;275;48.492;9.214;2022-12-13T15:41:24;14.77;;;13.23;;
577;SDS011;275;48.492;9.214;2022-12-13T15:43:56;19.55;;;17.65;;
577;SDS011;275;48.492;9.214;2022-12-13T15:46:26;17.98;;;16.17;;
577;SDS011;275;48.492;9.214;2022-12-13T15:48:54;15.27;;;13.68;;
577;SDS011;275;48.492;9.214;2022-12-13T15:51:22;17.45;;;15.32;;
577;SDS011;275;48.492;9.214;2022-12-13T15:54:03;11.98;;;10.85;;
577;SDS011;275;48.492;9.214;2022-12-13T15:56:32;12.30;;;11.00;;
577;SDS011;275;48.492;9.214;2022-12-13T15:59:02;15.18;;;13.68;;